Time;durP1;ratioP1;P1;durP2;ratioP2;P2;SDS_P1;SDS_P2;PMS_P1;PMS_P2;Temp;Humidity;BMP_temperature;BMP_pressure;BME280_temperature;BME280_humidity;BME280_pressure;Samples;Min_cycle;Max_cycle;Signal;HPM_P1;HPM_P2
2022/02/23 00:02:25;;;;;;;0.20;0.10;;;8.80;99.90;;;;;;25456193;23;20168;-79
2022/02/23 00:12:29;;;;;;;0.20;0.10;;;8.60;99.90;;;;;;25454772;23;20188;-79
2022/02/23 00:22:34;;;;;;;0.20;0.00;;;8.50;99.90;;;;;;25454924;23;20174;-64
2022/02/23 00:32:38;;;;;;;0.20;0.10;;;8.40;99.90;;;;;;25453783;23;20195;-63
2022/02/23 00:42:43;;;;;;;0.20;0.10;;;8.30;99.90;;;;;;25454119;23;20179;-76
2022/02/23 00:52:47;;;;;;;0.20;0.00;;;8.30;99.90;;;;;;25453661;23;20187;-79
2022/02/23 01:02:52;;;;;;;0.20;0.00;;;8.60;99.90;;;;;;25453621;23;20167;-76
2022/02/23 01:12:56;;;;;;;0.20;0.10;;;9.00;99.90;;;;;;25452816;23;20180;-81
2022/02/23 01:23:01;;;;;;;0.20;0.00;;;9.60;99.90;;;;;;25452006;23;20163;-63
2022/02/23 01:33:05;;;;;;;0.20;0.00;;;9.90;99.90;;;;;;25450719;23;20774;-63
2022/02/23 01:43:10;;;;;;;0.20;0.10;;;10.10;99.90;;;;;;25449912;23;20174;-64
2022/02/23 01:53:17;;;;;;;0.20;0.00;;;10.40;99.90;;;;;;25450848;23;20191;-63
2022/02/23 02:03:22;;;;;;;0.20;0.00;;;10.50;99.90;;;;;;25450000;23;20180;-63
2022/02/23 02:13:25;;;;;;;0.20;0.10;;;10.70;99.90;;;;;;25452378;23;20874;-79
2022/02/23 02:23:31;;;;;;;0.20;0.07;;;10.80;99.90;;;;;;25452968;23;20178;-77
2022/02/23 02:33:35;;;;;;;0.20;0.00;;;10.70;99.90;;;;;;25425086;23;20206;-77
2022/02/23 02:43:40;;;;;;;0.20;0.00;;;10.70;99.90;;;;;;25449149;23;20278;-77
2022/02/23 02:53:44;;;;;;;0.20;0.10;;;10.60;99.90;;;;;;25449198;23;20194;-76
2022/02/23 03:03:49;;;;;;;0.20;0.10;;;10.20;99.90;;;;;;25449087;23;20735;-79
2022/02/23 03:13:53;;;;;;;0.20;0.10;;;9.90;99.90;;;;;;25446906;23;20187;-66
2022/02/23 03:23:58;;;;;;;0.20;0.00;;;9.90;99.90;;;;;;25449635;23;20182;-63
2022/02/23 03:34:02;;;;;;;0.20;0.10;;;9.70;99.90;;;;;;25456306;23;20203;-63
2022/02/23 03:44:07;;;;;;;0.20;0.00;;;9.80;99.90;;;;;;25456521;23;20178;-64
2022/02/23 03:54:13;;;;;;;0.20;0.00;;;9.90;99.90;;;;;;25456359;23;20186;-63
2022/02/23 04:04:19;;;;;;;0.20;0.10;;;9.90;99.90;;;;;;25452137;23;20179;-63
2022/02/23 04:14:22;;;;;;;0.20;0.10;;;9.80;99.90;;;;;;25454723;23;20198;-65
2022/02/23 04:24:28;;;;;;;0.20;0.00;;;9.70;99.90;;;;;;25454275;23;20171;-63
2022/02/23 04:34:31;;;;;;;0.20;0.00;;;9.60;99.90;;;;;;25452961;23;20195;-63
2022/02/23 04:44:37;;;;;;;0.20;0.00;;;9.50;99.90;;;;;;25453018;23;20237;-63
2022/02/23 04:54:40;;;;;;;0.20;0.00;;;9.30;99.90;;;;;;25453967;23;20195;-63
2022/02/23 05:04:46;;;;;;;0.20;0.00;;;9.30;99.90;;;;;;25453037;23;20171;-78
2022/02/23 05:14:50;;;;;;;0.20;0.00;;;9.50;99.90;;;;;;25449226;23;20190;-79
2022/02/23 05:24:55;;;;;;;0.20;0.00;;;9.40;99.90;;;;;;25452831;23;20174;-82
2022/02/23 05:34:58;;;;;;;0.20;0.00;;;9.30;99.90;;;;;;25451886;23;20195;-82
2022/02/23 05:45:04;;;;;;;0.20;0.00;;;9.30;99.90;;;;;;25425038;23;20172;-78
2022/02/23 05:55:09;;;;;;;0.20;0.10;;;9.30;99.90;;;;;;25424592;23;20567;-66
2022/02/23 06:05:14;;;;;;;0.20;0.10;;;9.20;99.90;;;;;;25447233;23;20164;-66
2022/02/23 06:15:18;;;;;;;0.20;0.10;;;9.20;99.90;;;;;;25420731;23;20180;-67
2022/02/23 06:25:24;;;;;;;0.20;0.10;;;9.10;99.90;;;;;;25445042;23;20174;-66
2022/02/23 06:35:34;;;;;;;0.20;0.03;;;9.10;99.90;;;;;;25445092;23;20191;-67
2022/02/23 06:45:39;;;;;;;0.20;0.13;;;8.90;99.90;;;;;;25444559;23;20167;-69
2022/02/23 06:55:45;;;;;;;0.20;0.00;;;8.90;99.90;;;;;;25417693;23;20195;-68
2022/02/23 07:05:51;;;;;;;0.20;0.10;;;8.90;99.90;;;;;;25413253;23;20178;-64
2022/02/23 07:15:55;;;;;;;0.20;0.10;;;9.20;99.90;;;;;;25438667;23;20183;-64
2022/02/23 07:26:00;;;;;;;0.20;0.10;;;9.40;99.90;;;;;;25442505;23;20170;-67
2022/02/23 07:36:04;;;;;;;0.20;0.10;;;9.60;99.90;;;;;;25443088;23;20199;-71
2022/02/23 07:46:13;;;;;;;0.20;0.00;;;10.00;99.90;;;;;;25441826;23;20224;-78
2022/02/23 07:56:17;;;;;;;0.20;0.10;;;10.30;99.90;;;;;;25437752;23;20188;-77
2022/02/23 08:06:26;;;;;;;0.20;0.10;;;10.90;99.90;;;;;;25440765;23;20175;-75
2022/02/23 08:26:56;;;;;;;0.20;0.10;;;11.50;99.90;;;;;;25449975;23;20156;-64
2022/02/23 08:37:00;;;;;;;0.20;0.10;;;11.90;99.90;;;;;;25448307;23;20212;-64
2022/02/23 08:47:06;;;;;;;0.20;0.00;;;12.30;99.90;;;;;;25448940;23;20183;-63
2022/02/23 08:57:11;;;;;;;0.20;0.10;;;12.60;99.90;;;;;;25448390;23;20171;-80
2022/02/23 09:07:16;;;;;;;0.20;0.10;;;13.10;99.90;;;;;;25445550;23;20164;-82
2022/02/23 09:17:20;;;;;;;0.20;0.00;;;13.40;99.90;;;;;;25421468;23;20194;-84
2022/02/23 09:27:25;;;;;;;0.20;0.10;;;13.60;99.90;;;;;;25423372;23;20175;-83
2022/02/23 09:37:29;;;;;;;0.20;0.10;;;13.70;99.90;;;;;;25438905;23;20211;-65
2022/02/23 09:47:35;;;;;;;0.20;0.10;;;14.00;99.90;;;;;;25431927;23;20172;-66
2022/02/23 09:57:39;;;;;;;0.20;0.20;;;14.60;99.90;;;;;;25428708;23;20191;-66
2022/02/23 10:07:45;;;;;;;0.20;0.00;;;14.60;99.90;;;;;;25404232;23;20183;-66
2022/02/23 10:17:51;;;;;;;0.20;0.10;;;15.40;99.90;;;;;;25426887;23;20262;-68
2022/02/23 10:28:08;;;;;;;0.20;0.07;;;15.90;99.90;;;;;;25427511;23;20168;-67
2022/02/23 10:38:20;;;;;;;0.20;0.10;;;16.00;99.90;;;;;;25430426;23;20202;-66
2022/02/23 10:48:34;;;;;;;0.20;0.10;;;16.60;99.90;;;;;;25401745;23;20655;-67
2022/02/23 10:58:38;;;;;;;0.20;0.10;;;16.60;99.90;;;;;;25429313;23;20290;-65
2022/02/23 11:08:49;;;;;;;0.20;0.07;;;17.20;99.90;;;;;;25430477;23;20172;-65
2022/02/23 11:18:56;;;;;;;0.20;0.10;;;17.90;99.90;;;;;;25428505;23;20190;-64
2022/02/23 11:29:09;;;;;;;0.20;0.10;;;17.70;99.90;;;;;;25428632;23;20172;-70
2022/02/23 11:39:15;;;;;;;1.57;1.47;;;17.60;99.90;;;;;;25400565;23;20217;-70
2022/02/23 11:49:23;;;;;;;0.20;0.07;;;18.60;99.90;;;;;;25431581;23;20176;-71
2022/02/23 11:59:45;;;;;;;0.20;0.13;;;19.50;99.90;;;;;;25409371;23;20199;-71
2022/02/23 12:10:08;;;;;;;0.20;0.10;;;19.70;99.90;;;;;;25385653;23;20170;-71
2022/02/23 12:20:52;;;;;;;0.20;0.00;;;20.40;99.90;;;;;;25434533;23;20188;-70
2022/02/23 12:31:00;;;;;;;0.20;0.00;;;21.10;99.90;;;;;;25432510;23;20221;-77
2022/02/23 12:41:10;;;;;;;0.20;0.10;;;20.30;99.90;;;;;;25434418;23;20199;-66
2022/02/23 12:51:15;;;;;;;0.20;0.00;;;19.70;99.90;;;;;;25434174;23;20529;-67
2022/02/23 13:01:20;;;;;;;0.20;0.10;;;20.10;99.90;;;;;;25432338;23;20179;-67
2022/02/23 13:11:31;;;;;;;0.20;0.00;;;20.10;99.90;;;;;;25434208;23;20190;-66
2022/02/23 13:21:53;;;;;;;0.20;0.00;;;20.60;99.90;;;;;;25430067;23;20178;-65
2022/02/23 13:31:59;;;;;;;0.20;0.00;;;20.80;99.90;;;;;;25419104;23;20192;-66
2022/02/23 13:42:07;;;;;;;0.20;0.20;;;20.40;99.90;;;;;;25421776;23;20196;-65
2022/02/23 13:52:12;;;;;;;0.83;0.83;;;20.90;99.90;;;;;;25431565;23;20187;-65
2022/02/23 14:02:16;;;;;;;0.47;0.47;;;19.90;99.90;;;;;;25429023;23;20167;-66
2022/02/23 14:12:23;;;;;;;0.20;0.00;;;19.80;99.90;;;;;;25427076;23;20203;-65
2022/02/23 14:22:27;;;;;;;0.20;0.10;;;21.70;99.90;;;;;;25403700;23;20168;-65
2022/02/23 14:32:34;;;;;;;0.20;0.10;;;20.50;99.90;;;;;;25428829;23;20195;-65
2022/02/23 14:42:40;;;;;;;0.20;0.10;;;21.00;99.90;;;;;;25430872;23;20183;-65
2022/02/23 14:52:46;;;;;;;0.20;0.10;;;19.70;99.90;;;;;;25404068;23;20210;-65
2022/02/23 15:02:51;;;;;;;0.20;0.20;;;19.10;99.90;;;;;;25427396;23;20168;-65
2022/02/23 15:13:02;;;;;;;1.43;0.80;;;19.50;99.90;;;;;;25401252;23;20250;-66
2022/02/23 15:23:06;;;;;;;0.20;0.00;;;20.00;99.90;;;;;;25431562;23;20187;-61
2022/02/23 15:55:59;;;;;;;0.20;0.10;;;18.60;99.90;;;;;;25428238;23;20208;-66
2022/02/23 16:06:03;;;;;;;0.20;0.10;;;19.30;99.90;;;;;;25434735;23;20282;-69
2022/02/23 16:16:09;;;;;;;0.20;0.10;;;20.00;99.90;;;;;;25407690;23;20191;-69
2022/02/23 16:26:17;;;;;;;0.20;0.00;;;18.60;99.90;;;;;;25428339;23;20174;-70
2022/02/23 16:36:22;;;;;;;0.20;0.00;;;17.30;99.90;;;;;;25428710;23;20222;-83
2022/02/23 16:46:30;;;;;;;0.20;0.10;;;16.20;99.90;;;;;;25439004;23;20182;-85
2022/02/23 16:56:37;;;;;;;0.20;0.00;;;15.40;99.90;;;;;;25437309;23;20199;-82
2022/02/23 17:06:41;;;;;;;0.20;0.00;;;14.90;99.90;;;;;;25437791;23;20164;-75
2022/02/23 17:16:46;;;;;;;0.20;0.00;;;14.70;99.90;;;;;;25441984;23;20192;-80
2022/02/23 17:26:51;;;;;;;0.20;0.00;;;14.60;99.90;;;;;;25436148;23;20172;-82
2022/02/23 17:36:57;;;;;;;0.20;0.00;;;14.40;99.90;;;;;;25403476;23;20194;-65
2022/02/23 17:47:05;;;;;;;0.20;0.10;;;14.20;99.90;;;;;;25427216;23;20166;-64
2022/02/23 17:57:27;;;;;;;0.20;0.00;;;14.10;99.90;;;;;;25429713;23;20556;-65
2022/02/23 18:07:31;;;;;;;0.20;0.00;;;14.10;99.90;;;;;;25414289;23;20167;-78
2022/02/23 18:17:36;;;;;;;0.20;0.03;;;14.20;99.90;;;;;;25440636;23;20191;-80
2022/02/23 18:27:41;;;;;;;0.20;0.10;;;14.00;99.90;;;;;;25413773;23;20263;-79
2022/02/23 18:37:46;;;;;;;0.20;0.10;;;14.10;99.90;;;;;;25415388;23;20184;-78
2022/02/23 18:47:50;;;;;;;0.20;0.10;;;13.70;99.90;;;;;;25438252;23;20205;-79
2022/02/23 18:57:55;;;;;;;0.20;0.00;;;13.10;99.90;;;;;;25439448;23;20194;-79
2022/02/23 19:07:59;;;;;;;0.20;0.00;;;12.80;99.90;;;;;;25413972;23;20175;-81
2022/02/23 19:18:04;;;;;;;0.20;0.10;;;12.70;99.90;;;;;;25440952;23;20187;-81
2022/02/23 19:28:08;;;;;;;0.20;0.10;;;12.50;99.90;;;;;;25439526;23;20175;-78
2022/02/23 19:38:13;;;;;;;0.20;0.10;;;12.50;99.90;;;;;;25440378;23;20198;-75
2022/02/23 19:48:16;;;;;;;0.20;0.10;;;12.10;99.90;;;;;;25443453;23;20195;-78
2022/02/23 19:58:24;;;;;;;0.20;0.10;;;12.50;99.90;;;;;;25439715;23;20202;-77
2022/02/23 20:08:28;;;;;;;0.20;0.10;;;12.20;99.90;;;;;;25443018;23;20155;-71
2022/02/23 20:18:34;;;;;;;0.20;0.10;;;11.90;99.90;;;;;;25447514;23;20210;-78
2022/02/23 20:28:38;;;;;;;0.20;0.10;;;11.50;99.90;;;;;;25449901;23;20182;-78
2022/02/23 20:38:43;;;;;;;0.20;0.00;;;11.40;99.90;;;;;;25446137;23;20210;-64
2022/02/23 20:48:47;;;;;;;0.20;0.00;;;11.10;99.90;;;;;;25448517;23;20214;-64
2022/02/23 20:58:52;;;;;;;0.20;0.10;;;11.30;99.90;;;;;;25450494;23;20190;-64
2022/02/23 21:08:56;;;;;;;0.20;0.10;;;11.10;99.90;;;;;;25425233;23;20152;-63
2022/02/23 21:19:01;;;;;;;0.20;0.00;;;11.00;99.90;;;;;;25448709;23;20188;-64
2022/02/23 21:29:05;;;;;;;0.20;0.10;;;11.00;99.90;;;;;;25452090;23;20164;-63
2022/02/23 21:39:12;;;;;;;0.20;0.00;;;10.70;99.90;;;;;;25450939;23;20188;-63
2022/02/23 21:49:16;;;;;;;0.20;0.10;;;10.20;99.90;;;;;;25424238;23;20192;-62
2022/02/23 21:59:22;;;;;;;0.20;0.10;;;10.30;99.90;;;;;;25450011;23;20195;-64
2022/02/23 22:09:26;;;;;;;0.20;0.10;;;10.30;99.90;;;;;;25448970;23;20167;-63
2022/02/23 22:19:31;;;;;;;0.20;0.10;;;10.10;99.90;;;;;;25423353;23;20192;-63
2022/02/23 22:29:35;;;;;;;0.20;0.03;;;10.20;99.90;;;;;;25449743;23;20168;-63
2022/02/23 22:39:40;;;;;;;0.20;0.10;;;10.10;99.90;;;;;;25447577;23;20191;-63
2022/02/23 22:49:44;;;;;;;0.20;0.10;;;10.30;99.90;;;;;;25448573;23;20619;-64
2022/02/23 22:59:49;;;;;;;0.20;0.03;;;10.30;99.90;;;;;;25448576;23;20194;-63
2022/02/23 23:09:53;;;;;;;0.20;0.10;;;10.40;99.90;;;;;;25447092;23;20164;-63
2022/02/23 23:19:58;;;;;;;0.20;0.10;;;10.50;99.90;;;;;;25422540;23;20210;-62
2022/02/23 23:30:02;;;;;;;0.20;0.10;;;11.00;99.90;;;;;;25447837;23;20187;-63
2022/02/23 23:40:08;;;;;;;0.20;0.10;;;11.00;99.90;;;;;;25446386;23;20183;-64
2022/02/23 23:50:12;;;;;;;0.20;0.10;;;11.10;99.90;;;;;;25443617;23;20193;-62
